createdAt,value
2023-05-18T00:00:13.995Z,23.69
2023-05-18T00:02:41.958Z,23.52
2023-05-18T00:05:12.114Z,21.93
2023-05-18T00:07:40.705Z,16.52
2023-05-18T00:10:08.581Z,16.25
2023-05-18T00:12:37.529Z,16.18
2023-05-18T00:15:04.874Z,16.61
2023-05-18T00:17:31.763Z,16.32
2023-05-18T00:19:59.071Z,17.28
2023-05-18T00:22:26.024Z,18.39
2023-05-18T00:24:54.119Z,18.08
2023-05-18T00:27:20.930Z,19.24
2023-05-18T00:29:47.969Z,18.88
2023-05-18T00:32:14.855Z,17.37
2023-05-18T00:34:41.702Z,16.87
2023-05-18T00:37:08.513Z,17.64
2023-05-18T00:39:35.484Z,18.06
2023-05-18T00:42:03.095Z,17.87
2023-05-18T00:44:30.099Z,18.29
2023-05-18T00:46:57.137Z,18.00
2023-05-18T00:49:23.951Z,18.35
2023-05-18T00:51:50.806Z,17.92
2023-05-18T00:54:18.868Z,18.57
2023-05-18T00:56:46.217Z,17.47
2023-05-18T00:59:13.398Z,18.62
2023-05-18T01:01:43.237Z,19.10
2023-05-18T01:04:13.711Z,19.50
2023-05-18T01:06:42.435Z,19.22
2023-05-18T01:09:11.284Z,18.30
2023-05-18T01:12:12.536Z,18.73
2023-05-18T01:14:50.225Z,16.82
2023-05-18T01:17:42.022Z,16.61
2023-05-18T01:20:15.147Z,16.87
2023-05-18T01:22:50.068Z,17.36
2023-05-18T01:25:36.070Z,17.24
2023-05-18T01:28:09.673Z,18.27
2023-05-18T01:30:39.707Z,18.91
2023-05-18T01:33:08.941Z,19.37
2023-05-18T01:35:36.652Z,19.44
2023-05-18T01:38:04.108Z,19.56
2023-05-18T01:40:33.237Z,19.82
2023-05-18T01:43:03.654Z,19.88
2023-05-18T01:45:30.654Z,20.07
2023-05-18T01:47:59.592Z,19.98
2023-05-18T01:50:31.627Z,20.05
2023-05-18T01:53:05.932Z,20.04
2023-05-18T01:55:34.200Z,19.94
2023-05-18T01:58:01.364Z,20.10
2023-05-18T02:00:28.516Z,20.14
2023-05-18T02:02:55.662Z,20.26
2023-05-18T02:05:23.219Z,20.37
2023-05-18T02:07:50.051Z,20.48
2023-05-18T02:10:17.422Z,20.55
2023-05-18T02:12:48.585Z,20.60
2023-05-18T02:15:15.609Z,20.47
2023-05-18T02:17:42.969Z,20.43
2023-05-18T02:20:10.728Z,20.38
2023-05-18T02:22:37.892Z,20.43
2023-05-18T02:25:06.766Z,20.63
2023-05-18T02:27:35.471Z,20.64
2023-05-18T02:30:08.217Z,20.65
2023-05-18T02:32:38.590Z,20.71
2023-05-18T02:35:07.736Z,20.60
2023-05-18T02:37:39.956Z,20.89
2023-05-18T02:40:12.091Z,21.01
2023-05-18T02:42:40.250Z,20.88
2023-05-18T02:45:07.749Z,20.80
2023-05-18T02:47:34.882Z,20.73
2023-05-18T02:50:02.440Z,20.91
2023-05-18T02:52:30.372Z,20.78
2023-05-18T02:54:57.468Z,20.71
2023-05-18T02:57:36.859Z,20.87
2023-05-18T03:00:11.216Z,20.92
2023-05-18T03:02:39.592Z,21.01
2023-05-18T03:05:07.570Z,21.17
2023-05-18T03:07:34.691Z,21.14
2023-05-18T03:10:07.149Z,20.95
2023-05-18T03:12:34.463Z,20.90
2023-05-18T03:15:01.269Z,20.83
2023-05-18T03:17:29.838Z,20.87
2023-05-18T03:19:56.801Z,20.73
2023-05-18T03:22:23.610Z,20.85
2023-05-18T03:24:51.134Z,20.87
2023-05-18T03:27:22.742Z,17.40
2023-05-18T03:29:50.196Z,16.54
2023-05-18T03:32:17.139Z,16.94
2023-05-18T03:34:47.001Z,18.43
2023-05-18T03:37:15.327Z,19.03
2023-05-18T03:39:42.338Z,19.29
2023-05-18T03:42:09.221Z,19.21
2023-05-18T03:44:36.266Z,19.30
2023-05-18T03:47:03.622Z,19.40
2023-05-18T03:49:33.525Z,19.64
2023-05-18T03:52:01.917Z,19.74
2023-05-18T03:54:30.292Z,19.74
2023-05-18T03:56:57.243Z,18.36
2023-05-18T03:59:24.082Z,18.64
2023-05-18T04:01:53.181Z,18.29
2023-05-18T04:04:22.573Z,17.66
2023-05-18T04:06:50.930Z,17.42
2023-05-18T04:09:18.613Z,18.59
2023-05-18T04:11:45.452Z,19.08
2023-05-18T04:14:13.631Z,19.31
2023-05-18T04:16:40.965Z,19.54
2023-05-18T04:19:08.487Z,19.77
2023-05-18T04:21:36.822Z,19.87
2023-05-18T04:24:04.709Z,19.94
2023-05-18T04:26:38.237Z,20.17
2023-05-18T04:29:07.277Z,20.16
2023-05-18T04:31:35.318Z,20.21
2023-05-18T04:34:02.288Z,20.44
2023-05-18T04:36:34.561Z,20.63
2023-05-18T04:39:07.275Z,20.86
2023-05-18T04:41:34.798Z,21.00
2023-05-18T04:44:03.073Z,21.09
2023-05-18T04:46:30.420Z,21.13
2023-05-18T04:48:57.471Z,21.18
2023-05-18T04:51:24.290Z,21.17
2023-05-18T04:53:52.602Z,21.18
2023-05-18T04:56:22.626Z,21.48
2023-05-18T04:58:49.767Z,21.57
2023-05-18T05:01:17.923Z,21.69
2023-05-18T05:03:45.192Z,20.39
2023-05-18T05:06:12.330Z,19.69
2023-05-18T05:08:39.506Z,20.27
2023-05-18T05:11:06.659Z,19.97
2023-05-18T05:13:35.508Z,19.51
2023-05-18T05:16:02.944Z,19.56
2023-05-18T05:18:30.339Z,20.09
2023-05-18T05:20:58.801Z,20.54
2023-05-18T05:23:26.832Z,20.95
2023-05-18T05:25:54.339Z,21.16
2023-05-18T05:28:21.283Z,21.16
2023-05-18T05:30:48.554Z,21.27
2023-05-18T05:33:16.838Z,21.59
2023-05-18T05:35:44.051Z,22.13
2023-05-18T05:38:11.209Z,23.11
2023-05-18T05:40:38.403Z,23.92
2023-05-18T05:43:05.712Z,24.35
2023-05-18T05:45:33.534Z,24.99
2023-05-18T05:48:03.155Z,25.76
2023-05-18T05:50:31.594Z,25.87
2023-05-18T05:53:01.010Z,24.68
2023-05-18T05:55:31.215Z,24.12
2023-05-18T05:57:58.214Z,24.76
2023-05-18T06:00:27.022Z,26.26
2023-05-18T06:02:59.047Z,26.72
2023-05-18T06:05:35.241Z,26.96
2023-05-18T06:08:04.236Z,27.58
2023-05-18T06:10:32.311Z,27.90
2023-05-18T06:12:59.978Z,28.59
2023-05-18T06:15:38.636Z,28.68
2023-05-18T06:18:05.579Z,28.51
2023-05-18T06:20:32.862Z,28.22
2023-05-18T06:23:00.422Z,28.41
2023-05-18T06:25:38.760Z,27.62
2023-05-18T06:28:25.659Z,26.62
2023-05-18T06:31:18.192Z,27.34
2023-05-18T06:33:49.171Z,26.89
2023-05-18T06:36:16.492Z,28.21
2023-05-18T06:38:44.565Z,28.33
2023-05-18T06:41:11.333Z,28.37
2023-05-18T06:43:40.790Z,28.32
2023-05-18T06:46:30.734Z,28.90
2023-05-18T06:49:00.825Z,27.01
2023-05-18T06:51:27.947Z,27.52
2023-05-18T06:53:56.965Z,28.31
2023-05-18T06:56:24.026Z,28.36
2023-05-18T06:58:51.765Z,28.53
2023-05-18T07:01:18.847Z,29.13
2023-05-18T07:03:46.104Z,28.26
2023-05-18T07:06:14.600Z,28.77
2023-05-18T07:08:41.533Z,28.92
2023-05-18T07:11:09.242Z,28.53
2023-05-18T07:13:36.220Z,28.19
2023-05-18T07:16:03.185Z,28.22
2023-05-18T07:18:30.390Z,28.69
2023-05-18T07:20:57.133Z,29.02
2023-05-18T07:23:24.332Z,28.82
2023-05-18T07:25:51.251Z,28.86
2023-05-18T07:28:18.386Z,29.01
2023-05-18T07:30:45.469Z,29.06
2023-05-18T07:33:12.641Z,29.08
2023-05-18T07:35:39.733Z,29.65
2023-05-18T07:38:06.865Z,29.66
2023-05-18T07:40:33.826Z,30.15
2023-05-18T07:43:00.671Z,30.21
2023-05-18T07:45:27.628Z,30.15
2023-05-18T07:47:54.600Z,30.20
2023-05-18T07:50:21.795Z,30.10
2023-05-18T07:52:48.741Z,30.07
2023-05-18T07:55:15.991Z,30.22
2023-05-18T07:57:42.948Z,30.20
2023-05-18T08:00:10.916Z,30.25
2023-05-18T08:02:42.590Z,30.22
2023-05-18T08:05:10.575Z,30.15
2023-05-18T08:07:37.781Z,30.23
2023-05-18T08:10:05.589Z,30.60
2023-05-18T08:12:32.943Z,30.72
2023-05-18T08:15:00.102Z,30.50
2023-05-18T08:17:27.090Z,30.33
2023-05-18T08:19:54.163Z,30.23
2023-05-18T08:22:21.118Z,30.07
2023-05-18T08:24:48.078Z,29.84
2023-05-18T08:27:15.394Z,29.95
2023-05-18T08:29:42.230Z,30.15
2023-05-18T08:32:09.267Z,30.26
2023-05-18T08:34:36.211Z,30.48
2023-05-18T08:37:03.486Z,30.19
2023-05-18T08:39:31.979Z,29.98
2023-05-18T08:42:03.414Z,29.85
2023-05-18T08:44:38.119Z,30.14
2023-05-18T08:47:08.770Z,30.33
2023-05-18T08:49:35.575Z,30.35
2023-05-18T08:52:15.652Z,30.15
2023-05-18T08:54:42.589Z,30.08
2023-05-18T08:57:12.370Z,30.64
2023-05-18T08:59:42.823Z,31.12
2023-05-18T09:02:10.138Z,30.82
2023-05-18T09:04:37.325Z,28.96
2023-05-18T09:07:05.985Z,28.68
2023-05-18T09:09:33.028Z,29.70
2023-05-18T09:11:59.988Z,29.97
2023-05-18T09:14:27.122Z,30.39
2023-05-18T09:16:54.319Z,30.40
2023-05-18T09:19:21.750Z,30.41
2023-05-18T09:21:49.034Z,30.09
2023-05-18T09:24:16.018Z,30.25
2023-05-18T09:26:42.994Z,30.38
2023-05-18T09:29:17.636Z,30.44
2023-05-18T09:31:46.566Z,30.52
2023-05-18T09:34:14.605Z,30.32
2023-05-18T09:36:42.742Z,30.51
2023-05-18T09:39:11.535Z,30.54
2023-05-18T09:41:40.109Z,30.66
2023-05-18T09:44:09.809Z,30.58
2023-05-18T09:46:37.739Z,31.06
2023-05-18T09:49:05.918Z,31.04
2023-05-18T09:51:36.862Z,30.92
2023-05-18T09:54:06.992Z,30.81
2023-05-18T09:56:36.976Z,30.96
2023-05-18T09:59:14.448Z,31.21
2023-05-18T10:01:57.116Z,31.73
2023-05-18T10:04:26.613Z,31.08
2023-05-18T10:06:53.692Z,30.91
2023-05-18T10:09:20.668Z,30.96
2023-05-18T10:11:48.448Z,31.11
2023-05-18T10:14:15.397Z,30.77
2023-05-18T10:16:42.861Z,31.20
2023-05-18T10:19:09.872Z,31.58
2023-05-18T10:21:36.840Z,31.61
2023-05-18T10:24:04.757Z,31.91
2023-05-18T10:26:31.755Z,31.96
2023-05-18T10:28:58.831Z,31.30
2023-05-18T10:31:26.035Z,31.64
2023-05-18T10:33:53.181Z,32.00
2023-05-18T10:36:20.242Z,31.62
2023-05-18T10:38:47.297Z,31.31
2023-05-18T10:41:14.296Z,31.12
2023-05-18T10:43:41.589Z,31.44
2023-05-18T10:46:08.760Z,31.61
2023-05-18T10:48:38.606Z,31.46
2023-05-18T10:51:07.183Z,31.49
2023-05-18T10:53:34.392Z,31.36
2023-05-18T10:56:01.913Z,31.81
2023-05-18T10:58:29.978Z,31.58
2023-05-18T11:01:01.375Z,31.99
2023-05-18T11:03:28.840Z,31.91
2023-05-18T11:06:12.856Z,32.08
2023-05-18T11:08:49.869Z,32.63
2023-05-18T11:11:19.214Z,28.69
2023-05-18T11:13:50.291Z,28.11
2023-05-18T11:16:19.915Z,28.40
2023-05-18T11:18:51.979Z,28.59
2023-05-18T11:21:25.277Z,28.64
2023-05-18T11:24:14.910Z,28.30
2023-05-18T11:26:42.832Z,27.84
2023-05-18T11:29:36.865Z,27.69
2023-05-18T11:32:05.287Z,27.50
2023-05-18T11:34:46.393Z,27.80
2023-05-18T11:37:17.296Z,28.00
2023-05-18T11:40:00.198Z,28.24
2023-05-18T11:42:33.028Z,27.95
2023-05-18T11:45:06.762Z,27.78
2023-05-18T11:47:33.819Z,27.88
2023-05-18T11:50:01.003Z,28.25
2023-05-18T11:52:28.013Z,28.28
2023-05-18T11:55:00.062Z,28.14
2023-05-18T11:57:39.577Z,27.95
2023-05-18T12:00:13.687Z,28.20
2023-05-18T12:02:47.781Z,28.10
2023-05-18T12:05:15.397Z,28.23
2023-05-18T12:07:42.515Z,29.17
2023-05-18T12:10:12.829Z,29.80
2023-05-18T12:12:40.188Z,30.79
2023-05-18T12:15:08.728Z,31.16
2023-05-18T12:17:45.785Z,31.40
2023-05-18T12:20:20.823Z,31.46
2023-05-18T12:22:53.959Z,31.74
2023-05-18T12:25:23.449Z,31.59
2023-05-18T12:27:51.824Z,31.89
2023-05-18T12:30:20.446Z,32.01
2023-05-18T12:32:51.464Z,32.50
2023-05-18T12:35:25.405Z,30.75
2023-05-18T12:37:52.489Z,28.73
2023-05-18T12:40:20.130Z,28.54
2023-05-18T12:43:00.338Z,28.60
2023-05-18T12:45:28.602Z,28.78
2023-05-18T12:47:56.365Z,28.50
2023-05-18T12:50:25.792Z,28.32
2023-05-18T12:52:52.822Z,28.57
2023-05-18T12:55:23.484Z,28.69
2023-05-18T12:58:02.150Z,28.74
2023-05-18T13:00:35.540Z,28.50
2023-05-18T13:03:12.582Z,28.30
2023-05-18T13:05:42.663Z,28.27
2023-05-18T13:08:09.624Z,28.46
2023-05-18T13:10:36.648Z,28.71
2023-05-18T13:13:04.033Z,28.84
2023-05-18T13:15:35.923Z,28.94
2023-05-18T13:18:04.003Z,28.67
2023-05-18T13:20:41.613Z,28.40
2023-05-18T13:23:10.489Z,28.58
2023-05-18T13:25:37.786Z,28.78
2023-05-18T13:28:04.973Z,28.74
2023-05-18T13:30:32.583Z,29.02
2023-05-18T13:33:00.343Z,29.29
2023-05-18T13:35:27.289Z,29.49
2023-05-18T13:37:54.330Z,29.07
2023-05-18T13:40:22.366Z,29.49
2023-05-18T13:42:49.331Z,29.39
2023-05-18T13:45:16.500Z,29.62
2023-05-18T13:47:45.863Z,29.64
2023-05-18T13:50:13.094Z,29.29
2023-05-18T13:52:40.237Z,29.12
2023-05-18T13:55:08.201Z,29.12
2023-05-18T13:57:36.182Z,29.29
2023-05-18T14:00:06.922Z,29.55
2023-05-18T14:02:39.572Z,29.53
2023-05-18T14:05:08.821Z,29.44
2023-05-18T14:07:36.992Z,29.26
2023-05-18T14:10:05.170Z,28.61
2023-05-18T14:12:32.553Z,28.52
2023-05-18T14:14:59.935Z,28.87
2023-05-18T14:17:30.277Z,28.87
2023-05-18T14:19:57.758Z,28.87
2023-05-18T14:22:26.381Z,29.19
2023-05-18T14:24:54.033Z,29.34
2023-05-18T14:27:21.011Z,29.26
2023-05-18T14:29:48.498Z,29.35
2023-05-18T14:32:15.437Z,29.46
2023-05-18T14:34:42.717Z,29.77
2023-05-18T14:37:09.756Z,30.10
2023-05-18T14:39:37.878Z,29.99
2023-05-18T14:42:06.330Z,29.78
2023-05-18T14:44:33.334Z,29.68
2023-05-18T14:47:00.490Z,29.76
2023-05-18T14:49:28.158Z,30.05
2023-05-18T14:51:55.200Z,30.03
2023-05-18T14:54:22.961Z,30.12
2023-05-18T14:56:50.028Z,30.43
2023-05-18T14:59:17.060Z,30.70
2023-05-18T15:01:44.005Z,30.62
2023-05-18T15:04:11.081Z,30.23
2023-05-18T15:06:38.287Z,30.39
2023-05-18T15:09:06.477Z,30.55
2023-05-18T15:11:33.609Z,30.46
2023-05-18T15:14:03.018Z,30.42
2023-05-18T15:16:31.184Z,30.72
2023-05-18T15:18:58.284Z,31.11
2023-05-18T15:21:25.858Z,30.78
2023-05-18T15:23:53.836Z,29.95
2023-05-18T15:26:21.418Z,29.48
2023-05-18T15:28:49.359Z,29.15
2023-05-18T15:31:16.420Z,29.24
2023-05-18T15:33:45.106Z,29.44
2023-05-18T15:36:12.037Z,29.52
2023-05-18T15:38:39.066Z,29.62
2023-05-18T15:41:06.167Z,29.69
2023-05-18T15:43:33.764Z,29.51
2023-05-18T15:46:00.760Z,29.52
2023-05-18T15:48:30.031Z,29.33
2023-05-18T15:50:57.031Z,29.11
2023-05-18T15:53:24.142Z,29.14
2023-05-18T15:55:57.813Z,29.38
2023-05-18T15:58:26.713Z,29.45
2023-05-18T16:00:54.029Z,29.96
2023-05-18T16:03:21.502Z,30.32
2023-05-18T16:05:48.649Z,30.49
2023-05-18T16:08:18.430Z,30.25
2023-05-18T16:10:45.428Z,27.75
2023-05-18T16:13:12.440Z,27.26
2023-05-18T16:15:39.510Z,26.95
2023-05-18T16:18:06.542Z,27.52
2023-05-18T16:20:33.782Z,27.11
2023-05-18T16:23:01.063Z,27.32
2023-05-18T16:25:29.152Z,27.70
2023-05-18T16:27:56.530Z,27.07
2023-05-18T16:30:23.537Z,27.56
2023-05-18T16:32:50.630Z,27.67
2023-05-18T16:35:17.641Z,27.68
2023-05-18T16:37:45.268Z,27.69
2023-05-18T16:40:13.144Z,27.58
2023-05-18T16:42:40.193Z,26.42
2023-05-18T16:45:07.423Z,25.07
2023-05-18T16:47:34.508Z,25.08
2023-05-18T16:50:01.614Z,25.47
2023-05-18T16:52:28.841Z,25.52
2023-05-18T16:54:55.866Z,25.58
2023-05-18T16:57:25.393Z,25.45
2023-05-18T16:59:54.335Z,25.54
2023-05-18T17:02:21.716Z,25.50
2023-05-18T17:04:50.136Z,25.43
2023-05-18T17:07:17.296Z,25.54
2023-05-18T17:09:44.429Z,25.40
2023-05-18T17:12:12.229Z,25.34
2023-05-18T17:14:39.343Z,25.28
2023-05-18T17:17:07.088Z,25.28
2023-05-18T17:19:39.072Z,25.28
2023-05-18T17:22:06.372Z,23.17
2023-05-18T17:24:33.324Z,23.08
2023-05-18T17:27:00.344Z,23.36
2023-05-18T17:29:27.593Z,23.68
2023-05-18T17:31:55.182Z,23.87
2023-05-18T17:34:22.770Z,24.00
2023-05-18T17:36:49.966Z,24.06
2023-05-18T17:39:17.018Z,24.10
2023-05-18T17:41:44.441Z,24.04
2023-05-18T17:44:14.318Z,24.02
2023-05-18T17:46:42.087Z,24.08
2023-05-18T17:49:09.360Z,24.21
2023-05-18T17:51:36.696Z,24.15
2023-05-18T17:54:04.300Z,24.11
2023-05-18T17:56:32.169Z,23.97
2023-05-18T17:58:59.799Z,23.86
2023-05-18T18:01:30.313Z,23.78
2023-05-18T18:03:57.472Z,23.65
2023-05-18T18:06:24.972Z,23.60
2023-05-18T18:08:53.931Z,23.64
2023-05-18T18:11:24.507Z,23.62
2023-05-18T18:13:51.714Z,23.73
2023-05-18T18:16:18.776Z,23.84
2023-05-18T18:18:45.977Z,23.81
2023-05-18T18:21:13.021Z,23.85
2023-05-18T18:23:40.585Z,23.88
2023-05-18T18:26:08.077Z,23.50
2023-05-18T18:28:35.260Z,23.15
2023-05-18T18:31:03.351Z,23.11
2023-05-18T18:33:30.630Z,23.10
2023-05-18T18:35:57.721Z,23.01
2023-05-18T18:38:27.060Z,22.75
2023-05-18T18:40:59.939Z,22.50
2023-05-18T18:43:28.133Z,22.52
2023-05-18T18:45:57.282Z,22.49
2023-05-18T18:48:25.085Z,22.37
2023-05-18T18:50:52.805Z,22.25
2023-05-18T18:53:19.838Z,22.16
2023-05-18T18:55:47.215Z,22.09
2023-05-18T18:58:16.226Z,22.03
2023-05-18T19:00:44.142Z,21.93
2023-05-18T19:03:11.263Z,21.74
2023-05-18T19:05:38.375Z,21.62
2023-05-18T19:08:05.671Z,21.36
2023-05-18T19:10:34.407Z,19.59
2023-05-18T19:13:05.934Z,19.33
2023-05-18T19:15:34.898Z,19.67
2023-05-18T19:18:02.392Z,19.50
2023-05-18T19:20:29.584Z,19.54
2023-05-18T19:22:56.657Z,19.31
2023-05-18T19:25:26.491Z,19.34
2023-05-18T19:27:55.417Z,19.20
2023-05-18T19:30:22.580Z,19.24
2023-05-18T19:32:50.208Z,19.25
2023-05-18T19:35:19.800Z,19.16
2023-05-18T19:37:47.654Z,19.04
2023-05-18T19:40:14.772Z,19.03
2023-05-18T19:42:41.983Z,19.04
2023-05-18T19:45:09.228Z,18.23
2023-05-18T19:47:36.857Z,18.29
2023-05-18T19:50:04.750Z,18.39
2023-05-18T19:52:33.821Z,18.41
2023-05-18T19:55:02.465Z,18.37
2023-05-18T19:57:29.919Z,18.28
2023-05-18T19:59:58.050Z,18.50
2023-05-18T20:02:25.696Z,18.71
2023-05-18T20:04:53.871Z,18.76
2023-05-18T20:07:22.787Z,18.87
2023-05-18T20:09:55.196Z,18.93
2023-05-18T20:12:22.278Z,18.87
2023-05-18T20:14:49.433Z,18.89
2023-05-18T20:17:17.034Z,18.91
2023-05-18T20:19:49.985Z,18.98
2023-05-18T20:22:17.646Z,19.08
2023-05-18T20:24:44.781Z,19.08
2023-05-18T20:27:16.539Z,19.19
2023-05-18T20:29:43.598Z,19.26
2023-05-18T20:32:10.870Z,19.18
2023-05-18T20:34:37.873Z,19.22
2023-05-18T20:37:05.735Z,17.02
2023-05-18T20:39:33.007Z,16.91
2023-05-18T20:42:00.165Z,16.69
2023-05-18T20:44:28.958Z,17.87
2023-05-18T20:46:56.145Z,17.99
2023-05-18T20:49:25.105Z,18.10
2023-05-18T20:51:52.090Z,18.15
2023-05-18T20:54:20.982Z,18.18
2023-05-18T20:56:48.036Z,18.22
2023-05-18T20:59:18.276Z,18.15
2023-05-18T21:01:45.381Z,18.12
2023-05-18T21:04:13.292Z,18.08
2023-05-18T21:06:41.085Z,18.05
2023-05-18T21:09:08.468Z,18.04
2023-05-18T21:11:35.977Z,17.97
2023-05-18T21:14:03.159Z,17.96
2023-05-18T21:16:30.180Z,17.96
2023-05-18T21:18:57.389Z,18.04
2023-05-18T21:21:24.564Z,18.05
2023-05-18T21:23:51.634Z,18.10
2023-05-18T21:26:18.783Z,17.99
2023-05-18T21:28:45.776Z,17.87
2023-05-18T21:31:12.957Z,17.71
2023-05-18T21:33:40.150Z,17.73
2023-05-18T21:36:10.158Z,17.77
2023-05-18T21:38:37.425Z,17.67
2023-05-18T21:41:04.490Z,17.70
2023-05-18T21:43:31.614Z,17.62
2023-05-18T21:45:58.817Z,17.65
2023-05-18T21:48:25.841Z,17.54
2023-05-18T21:50:52.863Z,17.73
2023-05-18T21:53:19.806Z,17.82
2023-05-18T21:55:46.933Z,17.82
2023-05-18T21:58:13.861Z,17.65
2023-05-18T22:00:40.811Z,17.56
2023-05-18T22:03:07.825Z,17.62
2023-05-18T22:05:35.086Z,17.69
2023-05-18T22:08:02.001Z,17.88
2023-05-18T22:10:31.384Z,17.94
2023-05-18T22:12:59.399Z,17.92
2023-05-18T22:15:26.365Z,18.03
2023-05-18T22:17:54.575Z,18.01
2023-05-18T22:20:21.705Z,18.17
2023-05-18T22:22:48.719Z,18.34
2023-05-18T22:25:18.267Z,18.59
2023-05-18T22:27:45.918Z,18.88
2023-05-18T22:30:14.250Z,19.25
2023-05-18T22:32:41.329Z,19.51
2023-05-18T22:35:09.649Z,19.80
2023-05-18T22:37:36.753Z,19.95
2023-05-18T22:40:06.469Z,20.02
2023-05-18T22:42:33.805Z,19.96
2023-05-18T22:45:00.915Z,19.84
2023-05-18T22:47:28.409Z,20.01
2023-05-18T22:49:55.581Z,20.06
2023-05-18T22:52:22.926Z,20.17
2023-05-18T22:54:50.060Z,20.25
2023-05-18T22:57:17.043Z,20.21
2023-05-18T22:59:44.003Z,19.98
2023-05-18T23:02:11.168Z,19.99
2023-05-18T23:04:38.392Z,20.05
2023-05-18T23:07:05.555Z,20.07
2023-05-18T23:09:32.933Z,20.10
2023-05-18T23:12:01.449Z,20.15
2023-05-18T23:14:31.293Z,20.05
2023-05-18T23:17:01.784Z,20.03
2023-05-18T23:19:28.962Z,20.21
2023-05-18T23:21:56.126Z,20.28
2023-05-18T23:24:23.102Z,20.41
2023-05-18T23:26:50.080Z,20.42
2023-05-18T23:29:17.057Z,20.48
2023-05-18T23:31:44.115Z,17.71
2023-05-18T23:34:11.378Z,18.47
2023-05-18T23:36:38.977Z,18.97
2023-05-18T23:39:07.471Z,19.14
2023-05-18T23:41:34.458Z,19.29
2023-05-18T23:44:02.078Z,19.31
2023-05-18T23:46:30.017Z,19.31
2023-05-18T23:48:59.975Z,19.39
2023-05-18T23:51:29.987Z,19.69
2023-05-18T23:53:57.061Z,19.85
2023-05-18T23:56:25.038Z,19.96
2023-05-18T23:58:52.289Z,20.11
